FYI1648 LIPZ-EFHK
Flight info
| Callsign | FYI1648 |
|---|---|
| Flight time | 2h 50m |
| Altitude | 35000 |
| Route | ROSKA M859 BARPI DCT LAPNA DCT GOLVA DCT LEDVA DCT UPLAV DCT BAVOK DCT SUWGI DCT BOKSU DCT GUNTA M857 SOKVA DCT KEMET Q11 INTOR |
| Aircraft | A320/M-SDE3FGHIRWY/LB1 |
Departure
| Time | 2026-04-22 13:35 |
|---|---|
| Airport | Venice Marco Polo Airport (LIPZ) |
Arrival
| Time | 2026-04-22 16:26 |
|---|---|
| Airport | Helsinki Vantaa Airport (EFHK) |
| Time | Latitude | Longitude | Altitude | Speed | Heading |
|---|---|---|---|---|---|
| 2026-04-22 13:23 | 45.50428 | 12.34224 | 15 ft | 0 kts | 268° |
| 2026-04-22 13:25 | 45.50428 | 12.34231 | 15 ft | 3 kts | 267° |
| 2026-04-22 13:26 | 45.50430 | 12.34269 | 15 ft | 4 kts | 262° |
| 2026-04-22 13:26 | 45.50435 | 12.34306 | 16 ft | 4 kts | 250° |
| 2026-04-22 13:26 | 45.50448 | 12.34337 | 18 ft | 4 kts | 212° |
| 2026-04-22 13:26 | 45.50459 | 12.34344 | 19 ft | 0 kts | 177° |
| 2026-04-22 13:29 | 45.50442 | 12.34345 | 16 ft | 5 kts | 177° |
| 2026-04-22 13:30 | 45.50418 | 12.34347 | 16 ft | 7 kts | 177° |
| 2026-04-22 13:30 | 45.50349 | 12.34351 | 16 ft | 11 kts | 177° |
| 2026-04-22 13:30 | 45.50275 | 12.34330 | 16 ft | 11 kts | 219° |
| 2026-04-22 13:30 | 45.50213 | 12.34249 | 16 ft | 17 kts | 222° |
| 2026-04-22 13:31 | 45.50108 | 12.34115 | 16 ft | 22 kts | 222° |
| 2026-04-22 13:31 | 45.49993 | 12.33967 | 15 ft | 23 kts | 222° |
| 2026-04-22 13:31 | 45.49874 | 12.33815 | 15 ft | 24 kts | 221° |
| 2026-04-22 13:31 | 45.49756 | 12.33669 | 16 ft | 17 kts | 213° |
| 2026-04-22 13:32 | 45.49652 | 12.33576 | 16 ft | 18 kts | 223° |
| 2026-04-22 13:32 | 45.49552 | 12.33532 | 16 ft | 17 kts | 133° |
| 2026-04-22 13:32 | 45.49500 | 12.33615 | 16 ft | 0 kts | 133° |
| 2026-04-22 13:33 | 45.49499 | 12.33617 | 16 ft | 2 kts | 133° |
| 2026-04-22 13:33 | 45.49469 | 12.33662 | 16 ft | 8 kts | 133° |
| 2026-04-22 13:33 | 45.49427 | 12.33736 | 16 ft | 12 kts | 117° |
| 2026-04-22 13:33 | 45.49454 | 12.33825 | 14 ft | 0 kts | 43° |
| 2026-04-22 13:34 | 45.49454 | 12.33826 | 14 ft | 0 kts | 43° |
| 2026-04-22 13:34 | 45.49463 | 12.33838 | 14 ft | 15 kts | 43° |
| 2026-04-22 13:34 | 45.49741 | 12.34197 | 13 ft | 88 kts | 42° |
| 2026-04-22 13:35 | 45.50341 | 12.34969 | 14 ft | 142 kts | 42° |
| 2026-04-22 13:35 | 45.51173 | 12.36042 | 209 ft | 169 kts | 46° |
| 2026-04-22 13:35 | 45.52022 | 12.37167 | 877 ft | 166 kts | 47° |
| 2026-04-22 13:35 | 45.52854 | 12.38304 | 1605 ft | 165 kts | 45° |
| 2026-04-22 13:36 | 45.53556 | 12.39633 | 2079 ft | 177 kts | 72° |
| 2026-04-22 13:36 | 45.53638 | 12.41429 | 2458 ft | 190 kts | 103° |
| 2026-04-22 13:36 | 45.53358 | 12.43316 | 2963 ft | 198 kts | 100° |
| 2026-04-22 13:36 | 45.53129 | 12.45265 | 3557 ft | 201 kts | 98° |
| 2026-04-22 13:37 | 45.52931 | 12.47248 | 4122 ft | 203 kts | 97° |
| 2026-04-22 13:37 | 45.52742 | 12.49249 | 4712 ft | 204 kts | 97° |
| 2026-04-22 13:37 | 45.52550 | 12.51264 | 5289 ft | 206 kts | 96° |
| 2026-04-22 13:37 | 45.52336 | 12.53298 | 5852 ft | 208 kts | 101° |
| 2026-04-22 13:38 | 45.51739 | 12.55222 | 6296 ft | 220 kts | 122° |
| 2026-04-22 13:38 | 45.49458 | 12.58727 | 6795 ft | 266 kts | 130° |
| 2026-04-22 13:38 | 45.48173 | 12.60709 | 7410 ft | 273 kts | 129° |
| 2026-04-22 13:39 | 45.46867 | 12.62725 | 8091 ft | 281 kts | 129° |
| 2026-04-22 13:39 | 45.45525 | 12.64788 | 8775 ft | 287 kts | 129° |
| 2026-04-22 13:39 | 45.44154 | 12.66888 | 9494 ft | 292 kts | 129° |
| 2026-04-22 13:39 | 45.42756 | 12.69017 | 10204 ft | 297 kts | 129° |
| 2026-04-22 13:40 | 45.41321 | 12.71194 | 10513 ft | 317 kts | 129° |
| 2026-04-22 13:40 | 45.39760 | 12.73559 | 10678 ft | 340 kts | 130° |
| 2026-04-22 13:40 | 45.38089 | 12.76089 | 10821 ft | 361 kts | 130° |
| 2026-04-22 13:40 | 45.36343 | 12.78729 | 11254 ft | 370 kts | 130° |
| 2026-04-22 13:41 | 45.34791 | 12.81646 | 11847 ft | 370 kts | 115° |
| 2026-04-22 13:41 | 45.33868 | 12.85030 | 12477 ft | 367 kts | 99° |
| 2026-04-22 13:41 | 45.33649 | 12.88621 | 13106 ft | 365 kts | 83° |
| 2026-04-22 13:41 | 45.34132 | 12.92141 | 13724 ft | 363 kts | 67° |
| 2026-04-22 13:42 | 45.35243 | 12.95350 | 14281 ft | 363 kts | 56° |
| 2026-04-22 13:42 | 45.36539 | 12.98446 | 14820 ft | 366 kts | 56° |
| 2026-04-22 13:42 | 45.37845 | 13.01574 | 15368 ft | 369 kts | 56° |
| 2026-04-22 13:42 | 45.39156 | 13.04727 | 15906 ft | 372 kts | 56° |
| 2026-04-22 13:43 | 45.40476 | 13.07913 | 16429 ft | 375 kts | 56° |
| 2026-04-22 13:43 | 45.41806 | 13.11131 | 16940 ft | 378 kts | 56° |
| 2026-04-22 13:43 | 45.43145 | 13.14372 | 17435 ft | 381 kts | 56° |
| 2026-04-22 13:43 | 45.44492 | 13.17638 | 17962 ft | 384 kts | 56° |
| 2026-04-22 13:44 | 45.45845 | 13.20927 | 18460 ft | 387 kts | 56° |
| 2026-04-22 13:44 | 45.47209 | 13.24246 | 18889 ft | 390 kts | 56° |
| 2026-04-22 13:44 | 45.48583 | 13.27588 | 19321 ft | 392 kts | 56° |
| 2026-04-22 13:44 | 45.49963 | 13.30951 | 19744 ft | 395 kts | 56° |
| 2026-04-22 13:45 | 45.51350 | 13.34344 | 20189 ft | 397 kts | 56° |
| 2026-04-22 13:45 | 45.52724 | 13.37716 | 20584 ft | 400 kts | 56° |
| 2026-04-22 13:45 | 45.54125 | 13.41161 | 20997 ft | 403 kts | 56° |
| 2026-04-22 13:45 | 45.55528 | 13.44627 | 21393 ft | 405 kts | 56° |
| 2026-04-22 13:46 | 45.56933 | 13.48129 | 21802 ft | 408 kts | 57° |
| 2026-04-22 13:46 | 45.58364 | 13.51699 | 22229 ft | 409 kts | 55° |
| 2026-04-22 13:46 | 45.59928 | 13.55023 | 22607 ft | 410 kts | 51° |
| 2026-04-22 13:46 | 45.61570 | 13.58364 | 22988 ft | 412 kts | 51° |
| 2026-04-22 13:47 | 45.63223 | 13.61723 | 23356 ft | 414 kts | 51° |
| 2026-04-22 13:47 | 45.64884 | 13.65101 | 23706 ft | 417 kts | 51° |
| 2026-04-22 13:47 | 45.66552 | 13.68500 | 24016 ft | 419 kts | 51° |
| 2026-04-22 13:47 | 45.68233 | 13.71926 | 24304 ft | 422 kts | 51° |
| 2026-04-22 13:48 | 45.69919 | 13.75370 | 24577 ft | 424 kts | 51° |
| 2026-04-22 13:48 | 45.71615 | 13.78843 | 24874 ft | 427 kts | 51° |
| 2026-04-22 13:48 | 45.73321 | 13.82342 | 25167 ft | 429 kts | 51° |
| 2026-04-22 13:48 | 45.75025 | 13.85847 | 25527 ft | 430 kts | 51° |
| 2026-04-22 13:49 | 45.76737 | 13.89370 | 25804 ft | 432 kts | 51° |
| 2026-04-22 13:49 | 45.78460 | 13.92917 | 26070 ft | 435 kts | 51° |
| 2026-04-22 13:49 | 45.80191 | 13.96486 | 26339 ft | 437 kts | 51° |
| 2026-04-22 13:49 | 45.81931 | 14.00075 | 26592 ft | 440 kts | 51° |
| 2026-04-22 13:50 | 45.83680 | 14.03689 | 26839 ft | 442 kts | 51° |
| 2026-04-22 13:50 | 45.85434 | 14.07319 | 27072 ft | 444 kts | 51° |
| 2026-04-22 13:50 | 45.87197 | 14.10972 | 27313 ft | 446 kts | 51° |
| 2026-04-22 13:50 | 45.88969 | 14.14648 | 27541 ft | 449 kts | 51° |
| 2026-04-22 13:51 | 45.90746 | 14.18342 | 27783 ft | 451 kts | 51° |
| 2026-04-22 13:51 | 45.92530 | 14.22052 | 27998 ft | 453 kts | 51° |
| 2026-04-22 13:51 | 45.94324 | 14.25788 | 28264 ft | 454 kts | 51° |
| 2026-04-22 13:51 | 45.96116 | 14.29525 | 28593 ft | 454 kts | 51° |
| 2026-04-22 13:52 | 45.97905 | 14.33267 | 28921 ft | 454 kts | 51° |
| 2026-04-22 13:52 | 45.99696 | 14.37013 | 29238 ft | 454 kts | 51° |
| 2026-04-22 13:52 | 46.01485 | 14.40760 | 29600 ft | 454 kts | 51° |
| 2026-04-22 13:52 | 46.03269 | 14.44503 | 29973 ft | 453 kts | 51° |
| 2026-04-22 13:53 | 46.05048 | 14.48241 | 30333 ft | 452 kts | 52° |
| 2026-04-22 13:53 | 46.06816 | 14.51965 | 30713 ft | 449 kts | 52° |
| 2026-04-22 13:53 | 46.08573 | 14.55667 | 31021 ft | 448 kts | 52° |
| 2026-04-22 13:53 | 46.10332 | 14.59370 | 31285 ft | 448 kts | 52° |
| 2026-04-22 13:54 | 46.12090 | 14.63075 | 31537 ft | 448 kts | 52° |
| 2026-04-22 13:54 | 46.13847 | 14.66783 | 31792 ft | 448 kts | 52° |
| 2026-04-22 13:54 | 46.15580 | 14.70445 | 32047 ft | 448 kts | 52° |
| 2026-04-22 13:54 | 46.17334 | 14.74160 | 32313 ft | 448 kts | 52° |
| 2026-04-22 13:55 | 46.19090 | 14.77886 | 32535 ft | 449 kts | 51° |
| 2026-04-22 13:55 | 46.20844 | 14.81612 | 32790 ft | 449 kts | 52° |
| 2026-04-22 13:55 | 46.22597 | 14.85343 | 33082 ft | 448 kts | 52° |
| 2026-04-22 13:55 | 46.24342 | 14.89062 | 33353 ft | 447 kts | 52° |
| 2026-04-22 13:56 | 46.26088 | 14.92785 | 33626 ft | 447 kts | 52° |
| 2026-04-22 13:56 | 46.27833 | 14.96508 | 33856 ft | 448 kts | 52° |
| 2026-04-22 13:56 | 46.29583 | 15.00246 | 34060 ft | 450 kts | 52° |
| 2026-04-22 13:56 | 46.31338 | 15.03997 | 34260 ft | 451 kts | 52° |
| 2026-04-22 13:57 | 46.33091 | 15.07758 | 34466 ft | 451 kts | 52° |
| 2026-04-22 13:57 | 46.34841 | 15.11517 | 34667 ft | 451 kts | 52° |
| 2026-04-22 13:57 | 46.36596 | 15.15289 | 34872 ft | 451 kts | 52° |
| 2026-04-22 13:57 | 46.38344 | 15.19061 | 35087 ft | 451 kts | 53° |
| 2026-04-22 13:58 | 46.41832 | 15.26600 | 35204 ft | 451 kts | 52° |
| 2026-04-22 13:58 | 46.45322 | 15.34146 | 35212 ft | 450 kts | 52° |
| 2026-04-22 13:59 | 46.48807 | 15.41699 | 35214 ft | 450 kts | 53° |
| 2026-04-22 13:59 | 46.52423 | 15.49092 | 35218 ft | 446 kts | 44° |
| 2026-04-22 14:00 | 46.57157 | 15.54749 | 35214 ft | 439 kts | 27° |
| 2026-04-22 14:00 | 46.62554 | 15.58867 | 35205 ft | 438 kts | 25° |
| 2026-04-22 14:01 | 46.67956 | 15.62986 | 35201 ft | 438 kts | 25° |
| 2026-04-22 14:01 | 46.73485 | 15.66653 | 35204 ft | 436 kts | 19° |
| 2026-04-22 14:02 | 46.79171 | 15.69723 | 35197 ft | 435 kts | 19° |
| 2026-04-22 14:02 | 46.84848 | 15.72790 | 35194 ft | 435 kts | 19° |
| 2026-04-22 14:03 | 46.90517 | 15.75869 | 35190 ft | 434 kts | 19° |
| 2026-04-22 14:03 | 46.96180 | 15.78965 | 35192 ft | 434 kts | 19° |
| 2026-04-22 14:04 | 47.01795 | 15.82041 | 35190 ft | 434 kts | 19° |
| 2026-04-22 14:04 | 47.07445 | 15.85122 | 35187 ft | 433 kts | 19° |
| 2026-04-22 14:05 | 47.13093 | 15.88214 | 35190 ft | 433 kts | 19° |
| 2026-04-22 14:06 | 47.21558 | 15.92880 | 35182 ft | 433 kts | 19° |
| 2026-04-22 14:06 | 47.27197 | 15.95996 | 35180 ft | 433 kts | 19° |
| 2026-04-22 14:07 | 47.32837 | 15.99107 | 35178 ft | 433 kts | 19° |
| 2026-04-22 14:07 | 47.38476 | 16.02228 | 35179 ft | 433 kts | 20° |
| 2026-04-22 14:08 | 47.44108 | 16.05365 | 35179 ft | 432 kts | 20° |
| 2026-04-22 14:08 | 47.49737 | 16.08498 | 35180 ft | 432 kts | 20° |
| 2026-04-22 14:09 | 47.55370 | 16.11636 | 35184 ft | 432 kts | 20° |
| 2026-04-22 14:09 | 47.60988 | 16.14776 | 35189 ft | 432 kts | 20° |
| 2026-04-22 14:10 | 47.66605 | 16.17924 | 35191 ft | 431 kts | 20° |
| 2026-04-22 14:10 | 47.72217 | 16.21077 | 35189 ft | 431 kts | 20° |
| 2026-04-22 14:11 | 47.77826 | 16.24235 | 35190 ft | 431 kts | 20° |
| 2026-04-22 14:11 | 47.83432 | 16.27402 | 35188 ft | 431 kts | 20° |
| 2026-04-22 14:12 | 47.89032 | 16.30577 | 35186 ft | 431 kts | 20° |
| 2026-04-22 14:12 | 47.94639 | 16.33747 | 35189 ft | 431 kts | 20° |
| 2026-04-22 14:13 | 48.00246 | 16.36926 | 35194 ft | 431 kts | 20° |
| 2026-04-22 14:13 | 48.05846 | 16.40124 | 35187 ft | 431 kts | 20° |
| 2026-04-22 14:14 | 48.11404 | 16.43308 | 35182 ft | 431 kts | 20° |
| 2026-04-22 14:14 | 48.17000 | 16.46517 | 35180 ft | 431 kts | 21° |
| 2026-04-22 14:15 | 48.22603 | 16.49733 | 35178 ft | 431 kts | 21° |
| 2026-04-22 14:15 | 48.28203 | 16.52949 | 35182 ft | 431 kts | 21° |
| 2026-04-22 14:16 | 48.33802 | 16.56174 | 35183 ft | 431 kts | 21° |
| 2026-04-22 14:16 | 48.39393 | 16.59411 | 35188 ft | 431 kts | 21° |
| 2026-04-22 14:17 | 48.44985 | 16.62645 | 35187 ft | 430 kts | 21° |
| 2026-04-22 14:17 | 48.50575 | 16.65881 | 35183 ft | 430 kts | 21° |
| 2026-04-22 14:18 | 48.56161 | 16.69133 | 35185 ft | 430 kts | 21° |
| 2026-04-22 14:18 | 48.61738 | 16.72392 | 35189 ft | 429 kts | 22° |
| 2026-04-22 14:19 | 48.66369 | 16.75096 | 35189 ft | 429 kts | 21° |
| 2026-04-22 14:19 | 48.71898 | 16.78479 | 35187 ft | 428 kts | 28° |
| 2026-04-22 14:20 | 48.79061 | 16.86493 | 35182 ft | 427 kts | 39° |
| 2026-04-22 14:20 | 48.83677 | 16.92182 | 35185 ft | 427 kts | 39° |
| 2026-04-22 14:21 | 48.90601 | 17.00710 | 35183 ft | 427 kts | 39° |
| 2026-04-22 14:22 | 48.97509 | 17.09266 | 35190 ft | 426 kts | 39° |
| 2026-04-22 14:23 | 49.04397 | 17.17832 | 35188 ft | 426 kts | 39° |
| 2026-04-22 14:23 | 49.08983 | 17.23557 | 35187 ft | 426 kts | 39° |
| 2026-04-22 14:24 | 49.13566 | 17.29279 | 35184 ft | 425 kts | 39° |
| 2026-04-22 14:24 | 49.18139 | 17.35016 | 35189 ft | 425 kts | 39° |
| 2026-04-22 14:25 | 49.22706 | 17.40756 | 35191 ft | 425 kts | 39° |
| 2026-04-22 14:25 | 49.27265 | 17.46498 | 35193 ft | 424 kts | 39° |
| 2026-04-22 14:26 | 49.31825 | 17.52243 | 35184 ft | 424 kts | 38° |
| 2026-04-22 14:26 | 49.36775 | 17.57186 | 35193 ft | 424 kts | 33° |
| 2026-04-22 14:27 | 49.41770 | 17.62011 | 35193 ft | 424 kts | 33° |
| 2026-04-22 14:27 | 49.46727 | 17.66808 | 35197 ft | 424 kts | 33° |
| 2026-04-22 14:28 | 49.51710 | 17.71654 | 35200 ft | 424 kts | 33° |
| 2026-04-22 14:28 | 49.56687 | 17.76512 | 35207 ft | 423 kts | 33° |
| 2026-04-22 14:29 | 49.61661 | 17.81364 | 35214 ft | 423 kts | 33° |
| 2026-04-22 14:29 | 49.66625 | 17.86232 | 35216 ft | 423 kts | 33° |
| 2026-04-22 14:30 | 49.71584 | 17.91106 | 35214 ft | 422 kts | 33° |
| 2026-04-22 14:30 | 49.76539 | 17.95984 | 35215 ft | 422 kts | 33° |
| 2026-04-22 14:31 | 49.81492 | 18.00866 | 35216 ft | 422 kts | 34° |
| 2026-04-22 14:31 | 49.86439 | 18.05765 | 35213 ft | 422 kts | 34° |
| 2026-04-22 14:32 | 49.91388 | 18.10670 | 35200 ft | 422 kts | 34° |
| 2026-04-22 14:32 | 49.96328 | 18.15576 | 35208 ft | 421 kts | 34° |
| 2026-04-22 14:33 | 50.01256 | 18.20496 | 35205 ft | 420 kts | 34° |
| 2026-04-22 14:33 | 50.06128 | 18.25515 | 35205 ft | 420 kts | 35° |
| 2026-04-22 14:34 | 50.10975 | 18.30581 | 35210 ft | 420 kts | 35° |
| 2026-04-22 14:34 | 50.15823 | 18.35646 | 35207 ft | 419 kts | 36° |
| 2026-04-22 14:35 | 50.20663 | 18.40700 | 35214 ft | 418 kts | 36° |
| 2026-04-22 14:35 | 50.25494 | 18.45748 | 35205 ft | 418 kts | 36° |
| 2026-04-22 14:36 | 50.30320 | 18.50810 | 35208 ft | 417 kts | 36° |
| 2026-04-22 14:36 | 50.35140 | 18.55870 | 35196 ft | 417 kts | 36° |
| 2026-04-22 14:37 | 50.39944 | 18.60928 | 35208 ft | 416 kts | 36° |
| 2026-04-22 14:37 | 50.44735 | 18.66000 | 35211 ft | 415 kts | 36° |
| 2026-04-22 14:38 | 50.49522 | 18.71077 | 35202 ft | 415 kts | 36° |
| 2026-04-22 14:38 | 50.54301 | 18.76149 | 35178 ft | 414 kts | 36° |
| 2026-04-22 14:39 | 50.59067 | 18.81224 | 35181 ft | 413 kts | 37° |
| 2026-04-22 14:39 | 50.63827 | 18.86301 | 35202 ft | 413 kts | 36° |
| 2026-04-22 14:40 | 50.70952 | 18.93930 | 35200 ft | 412 kts | 37° |
| 2026-04-22 14:40 | 50.75694 | 18.99017 | 35189 ft | 412 kts | 37° |
| 2026-04-22 14:41 | 50.80430 | 19.04110 | 35198 ft | 411 kts | 37° |
| 2026-04-22 14:41 | 50.85152 | 19.09203 | 35193 ft | 411 kts | 37° |
| 2026-04-22 14:42 | 50.89868 | 19.14299 | 35202 ft | 410 kts | 37° |
| 2026-04-22 14:42 | 50.94581 | 19.19410 | 35190 ft | 410 kts | 37° |
| 2026-04-22 14:43 | 50.99283 | 19.24527 | 35209 ft | 409 kts | 37° |
| 2026-04-22 14:43 | 51.03971 | 19.29637 | 35193 ft | 408 kts | 37° |
| 2026-04-22 14:44 | 51.08652 | 19.34750 | 35190 ft | 408 kts | 37° |
| 2026-04-22 14:44 | 51.13326 | 19.39866 | 35188 ft | 408 kts | 37° |
| 2026-04-22 14:45 | 51.17993 | 19.44997 | 35184 ft | 407 kts | 37° |
| 2026-04-22 14:45 | 51.22648 | 19.50124 | 35178 ft | 406 kts | 37° |
| 2026-04-22 14:46 | 51.27299 | 19.55251 | 35176 ft | 406 kts | 37° |
| 2026-04-22 14:46 | 51.31913 | 19.60352 | 35173 ft | 406 kts | 37° |
| 2026-04-22 14:47 | 51.36547 | 19.65491 | 35166 ft | 405 kts | 37° |
| 2026-04-22 14:47 | 51.41174 | 19.70627 | 35164 ft | 404 kts | 38° |
| 2026-04-22 14:48 | 51.45783 | 19.75762 | 35171 ft | 403 kts | 38° |
| 2026-04-22 14:48 | 51.50380 | 19.80915 | 35160 ft | 403 kts | 38° |
| 2026-04-22 14:49 | 51.54977 | 19.86066 | 35159 ft | 403 kts | 38° |
| 2026-04-22 14:49 | 51.59568 | 19.91213 | 35144 ft | 402 kts | 38° |
| 2026-04-22 14:50 | 51.64141 | 19.96358 | 35145 ft | 401 kts | 38° |
| 2026-04-22 14:50 | 51.68707 | 20.01522 | 35147 ft | 401 kts | 38° |
| 2026-04-22 14:51 | 51.73265 | 20.06682 | 35139 ft | 400 kts | 38° |
| 2026-04-22 14:51 | 51.77825 | 20.11845 | 35138 ft | 400 kts | 38° |
| 2026-04-22 14:52 | 51.82370 | 20.17015 | 35133 ft | 400 kts | 38° |
| 2026-04-22 14:52 | 51.86911 | 20.22198 | 35132 ft | 399 kts | 38° |
| 2026-04-22 14:53 | 51.91453 | 20.27382 | 35131 ft | 400 kts | 38° |
| 2026-04-22 14:53 | 51.95997 | 20.32576 | 35130 ft | 399 kts | 38° |
| 2026-04-22 14:54 | 52.00527 | 20.37792 | 35109 ft | 399 kts | 38° |
| 2026-04-22 14:54 | 52.05059 | 20.43009 | 35115 ft | 399 kts | 38° |
| 2026-04-22 14:55 | 52.09578 | 20.48232 | 35110 ft | 399 kts | 38° |
| 2026-04-22 14:55 | 52.14070 | 20.53437 | 35109 ft | 399 kts | 38° |
| 2026-04-22 14:56 | 52.18592 | 20.58674 | 35098 ft | 399 kts | 38° |
| 2026-04-22 14:56 | 52.23134 | 20.63950 | 35087 ft | 398 kts | 38° |
| 2026-04-22 14:57 | 52.27637 | 20.69201 | 35086 ft | 398 kts | 38° |
| 2026-04-22 14:57 | 52.32103 | 20.74432 | 35100 ft | 397 kts | 38° |
| 2026-04-22 14:58 | 52.36587 | 20.79705 | 35093 ft | 397 kts | 38° |
| 2026-04-22 14:58 | 52.41082 | 20.84972 | 35074 ft | 397 kts | 38° |
| 2026-04-22 14:59 | 52.45559 | 20.90237 | 35083 ft | 396 kts | 38° |
| 2026-04-22 14:59 | 52.50021 | 20.95521 | 35091 ft | 395 kts | 38° |
| 2026-04-22 15:00 | 52.54481 | 21.00807 | 35089 ft | 395 kts | 38° |
| 2026-04-22 15:00 | 52.58933 | 21.06094 | 35084 ft | 395 kts | 38° |
| 2026-04-22 15:01 | 52.63378 | 21.11385 | 35086 ft | 394 kts | 38° |
| 2026-04-22 15:01 | 52.67815 | 21.16664 | 35091 ft | 393 kts | 38° |
| 2026-04-22 15:02 | 52.72242 | 21.21956 | 35080 ft | 393 kts | 38° |
| 2026-04-22 15:02 | 52.76654 | 21.27257 | 35079 ft | 392 kts | 38° |
| 2026-04-22 15:03 | 52.81063 | 21.32566 | 35072 ft | 392 kts | 38° |
| 2026-04-22 15:03 | 52.85466 | 21.37873 | 35076 ft | 391 kts | 39° |
| 2026-04-22 15:04 | 52.89854 | 21.43173 | 35075 ft | 390 kts | 39° |
| 2026-04-22 15:04 | 52.94226 | 21.48481 | 35075 ft | 389 kts | 39° |
| 2026-04-22 15:05 | 52.98593 | 21.53796 | 35070 ft | 389 kts | 39° |
| 2026-04-22 15:05 | 53.02220 | 21.58206 | 35068 ft | 389 kts | 39° |
| 2026-04-22 15:06 | 53.06578 | 21.63519 | 35063 ft | 388 kts | 39° |
| 2026-04-22 15:06 | 53.11619 | 21.69692 | 35061 ft | 387 kts | 39° |
| 2026-04-22 15:07 | 53.15244 | 21.74144 | 35064 ft | 386 kts | 39° |
| 2026-04-22 15:07 | 53.19561 | 21.79457 | 35064 ft | 386 kts | 39° |
| 2026-04-22 15:08 | 53.23871 | 21.84776 | 35062 ft | 385 kts | 39° |
| 2026-04-22 15:08 | 53.28168 | 21.90095 | 35056 ft | 384 kts | 39° |
| 2026-04-22 15:09 | 53.32447 | 21.95397 | 35061 ft | 382 kts | 39° |
| 2026-04-22 15:09 | 53.36715 | 22.00697 | 35059 ft | 381 kts | 39° |
| 2026-04-22 15:10 | 53.40972 | 22.05988 | 35056 ft | 381 kts | 40° |
| 2026-04-22 15:10 | 53.45220 | 22.11298 | 35051 ft | 381 kts | 40° |
| 2026-04-22 15:11 | 53.49430 | 22.16570 | 35049 ft | 380 kts | 39° |
| 2026-04-22 15:11 | 53.53656 | 22.21882 | 35049 ft | 379 kts | 39° |
| 2026-04-22 15:12 | 53.57879 | 22.27193 | 35049 ft | 379 kts | 39° |
| 2026-04-22 15:12 | 53.62096 | 22.32508 | 35045 ft | 379 kts | 39° |
| 2026-04-22 15:13 | 53.66309 | 22.37833 | 35061 ft | 379 kts | 39° |
| 2026-04-22 15:13 | 53.70513 | 22.43186 | 35043 ft | 378 kts | 39° |
| 2026-04-22 15:14 | 53.74713 | 22.48539 | 35042 ft | 378 kts | 39° |
| 2026-04-22 15:14 | 53.78911 | 22.53892 | 35035 ft | 378 kts | 39° |
| 2026-04-22 15:15 | 53.83108 | 22.59250 | 35035 ft | 378 kts | 39° |
| 2026-04-22 15:15 | 53.87303 | 22.64620 | 35030 ft | 378 kts | 39° |
| 2026-04-22 15:16 | 53.91495 | 22.70002 | 35030 ft | 378 kts | 39° |
| 2026-04-22 15:16 | 53.95680 | 22.75391 | 35024 ft | 378 kts | 39° |
| 2026-04-22 15:17 | 53.99861 | 22.80807 | 35023 ft | 378 kts | 39° |
| 2026-04-22 15:17 | 54.04038 | 22.86227 | 35022 ft | 378 kts | 39° |
| 2026-04-22 15:18 | 54.08473 | 22.91020 | 35018 ft | 382 kts | 26° |
| 2026-04-22 15:18 | 54.13443 | 22.94307 | 35001 ft | 383 kts | 25° |
| 2026-04-22 15:19 | 54.18403 | 22.97615 | 35004 ft | 382 kts | 26° |
| 2026-04-22 15:19 | 54.23317 | 23.00919 | 35003 ft | 382 kts | 26° |
| 2026-04-22 15:20 | 54.28268 | 23.04243 | 35003 ft | 382 kts | 26° |
| 2026-04-22 15:20 | 54.33401 | 23.06777 | 35001 ft | 388 kts | 16° |
| 2026-04-22 15:21 | 54.38715 | 23.08463 | 34998 ft | 388 kts | 15° |
| 2026-04-22 15:21 | 54.44022 | 23.10165 | 34999 ft | 388 kts | 15° |
| 2026-04-22 15:22 | 54.49328 | 23.11873 | 34998 ft | 388 kts | 16° |
| 2026-04-22 15:22 | 54.54625 | 23.13589 | 34972 ft | 387 kts | 16° |
| 2026-04-22 15:23 | 54.59919 | 23.15312 | 34972 ft | 387 kts | 16° |
| 2026-04-22 15:23 | 54.65204 | 23.17027 | 34970 ft | 386 kts | 15° |
| 2026-04-22 15:24 | 54.70486 | 23.18740 | 34978 ft | 386 kts | 15° |
| 2026-04-22 15:24 | 54.75756 | 23.20471 | 34971 ft | 386 kts | 15° |
| 2026-04-22 15:25 | 54.81027 | 23.22212 | 34970 ft | 385 kts | 15° |
| 2026-04-22 15:25 | 54.86296 | 23.23934 | 34961 ft | 385 kts | 15° |
| 2026-04-22 15:26 | 54.91562 | 23.25655 | 34954 ft | 385 kts | 15° |
| 2026-04-22 15:26 | 54.96826 | 23.27392 | 34967 ft | 385 kts | 15° |
| 2026-04-22 15:27 | 55.02083 | 23.29143 | 34961 ft | 385 kts | 15° |
| 2026-04-22 15:27 | 55.07339 | 23.30897 | 34957 ft | 385 kts | 15° |
| 2026-04-22 15:28 | 55.12594 | 23.32648 | 34948 ft | 384 kts | 15° |
| 2026-04-22 15:28 | 55.17848 | 23.34400 | 34953 ft | 384 kts | 14° |
| 2026-04-22 15:29 | 55.23064 | 23.36146 | 34950 ft | 384 kts | 14° |
| 2026-04-22 15:30 | 55.30934 | 23.38798 | 34945 ft | 384 kts | 14° |
| 2026-04-22 15:30 | 55.36178 | 23.40559 | 34951 ft | 384 kts | 15° |
| 2026-04-22 15:31 | 55.41417 | 23.42324 | 34956 ft | 383 kts | 14° |
| 2026-04-22 15:31 | 55.46648 | 23.44084 | 34957 ft | 382 kts | 14° |
| 2026-04-22 15:32 | 55.51869 | 23.45860 | 34950 ft | 382 kts | 14° |
| 2026-04-22 15:32 | 55.57083 | 23.47651 | 34918 ft | 382 kts | 14° |
| 2026-04-22 15:33 | 55.62310 | 23.49432 | 34922 ft | 383 kts | 14° |
| 2026-04-22 15:33 | 55.67539 | 23.51221 | 34923 ft | 383 kts | 14° |
| 2026-04-22 15:34 | 55.72770 | 23.53016 | 34925 ft | 383 kts | 14° |
| 2026-04-22 15:34 | 55.78000 | 23.54825 | 34938 ft | 383 kts | 14° |
| 2026-04-22 15:35 | 55.82344 | 23.56326 | 34943 ft | 383 kts | 14° |
| 2026-04-22 15:35 | 55.88450 | 23.58436 | 34940 ft | 382 kts | 14° |
| 2026-04-22 15:36 | 55.93668 | 23.60251 | 34939 ft | 382 kts | 13° |
| 2026-04-22 15:36 | 55.98885 | 23.62071 | 34939 ft | 382 kts | 13° |
| 2026-04-22 15:37 | 56.04095 | 23.63894 | 34941 ft | 381 kts | 14° |
| 2026-04-22 15:37 | 56.09304 | 23.65716 | 34935 ft | 381 kts | 13° |
| 2026-04-22 15:38 | 56.14509 | 23.67538 | 34931 ft | 381 kts | 14° |
| 2026-04-22 15:38 | 56.22314 | 23.70286 | 34949 ft | 381 kts | 13° |
| 2026-04-22 15:39 | 56.27508 | 23.72119 | 34944 ft | 380 kts | 13° |
| 2026-04-22 15:39 | 56.32703 | 23.73968 | 34939 ft | 380 kts | 13° |
| 2026-04-22 15:40 | 56.37895 | 23.75825 | 34939 ft | 380 kts | 13° |
| 2026-04-22 15:40 | 56.43030 | 23.77818 | 34934 ft | 380 kts | 14° |
| 2026-04-22 15:41 | 56.48188 | 23.79909 | 34928 ft | 380 kts | 14° |
| 2026-04-22 15:41 | 56.53347 | 23.81991 | 34928 ft | 380 kts | 14° |
| 2026-04-22 15:42 | 56.58515 | 23.84062 | 34936 ft | 381 kts | 14° |
| 2026-04-22 15:42 | 56.63701 | 23.86061 | 34910 ft | 381 kts | 14° |
| 2026-04-22 15:43 | 56.68916 | 23.87940 | 34919 ft | 382 kts | 13° |
| 2026-04-22 15:43 | 56.74139 | 23.89829 | 34952 ft | 383 kts | 13° |
| 2026-04-22 15:44 | 56.79358 | 23.91751 | 34942 ft | 382 kts | 13° |
| 2026-04-22 15:44 | 56.84569 | 23.93689 | 34942 ft | 382 kts | 13° |
| 2026-04-22 15:45 | 56.89781 | 23.95641 | 34952 ft | 382 kts | 13° |
| 2026-04-22 15:45 | 56.94993 | 23.97550 | 34950 ft | 382 kts | 12° |
| 2026-04-22 15:46 | 57.00226 | 23.99281 | 34929 ft | 382 kts | 11° |
| 2026-04-22 15:46 | 57.05461 | 24.00979 | 34925 ft | 382 kts | 12° |
| 2026-04-22 15:47 | 57.10685 | 24.02713 | 34921 ft | 381 kts | 12° |
| 2026-04-22 15:47 | 57.15905 | 24.04464 | 34922 ft | 381 kts | 12° |
| 2026-04-22 15:48 | 57.21123 | 24.06218 | 34925 ft | 381 kts | 12° |
| 2026-04-22 15:48 | 57.26337 | 24.07993 | 34922 ft | 381 kts | 12° |
| 2026-04-22 15:49 | 57.31551 | 24.09767 | 34917 ft | 380 kts | 12° |
| 2026-04-22 15:49 | 57.36755 | 24.11530 | 34914 ft | 380 kts | 12° |
| 2026-04-22 15:50 | 57.41915 | 24.13287 | 34914 ft | 380 kts | 12° |
| 2026-04-22 15:50 | 57.47111 | 24.15053 | 34901 ft | 379 kts | 12° |
| 2026-04-22 15:51 | 57.52299 | 24.16834 | 34897 ft | 379 kts | 12° |
| 2026-04-22 15:51 | 57.57483 | 24.18621 | 34917 ft | 379 kts | 11° |
| 2026-04-22 15:52 | 57.62657 | 24.20407 | 34907 ft | 378 kts | 11° |
| 2026-04-22 15:52 | 57.67816 | 24.22194 | 34903 ft | 377 kts | 11° |
| 2026-04-22 15:53 | 57.72966 | 24.23983 | 34887 ft | 376 kts | 11° |
| 2026-04-22 15:53 | 57.78113 | 24.25778 | 34882 ft | 376 kts | 11° |
| 2026-04-22 15:54 | 57.83252 | 24.27563 | 34882 ft | 376 kts | 11° |
| 2026-04-22 15:54 | 57.87560 | 24.29071 | 34884 ft | 375 kts | 11° |
| 2026-04-22 15:55 | 57.92658 | 24.30851 | 34878 ft | 375 kts | 11° |
| 2026-04-22 15:55 | 57.97789 | 24.32606 | 34859 ft | 375 kts | 11° |
| 2026-04-22 15:56 | 58.02920 | 24.34362 | 34853 ft | 375 kts | 11° |
| 2026-04-22 15:56 | 58.08043 | 24.36127 | 34840 ft | 374 kts | 11° |
| 2026-04-22 15:57 | 58.13167 | 24.37892 | 34880 ft | 374 kts | 10° |
| 2026-04-22 15:57 | 58.18276 | 24.39655 | 34860 ft | 373 kts | 10° |
| 2026-04-22 15:58 | 58.23377 | 24.41425 | 34865 ft | 372 kts | 11° |
| 2026-04-22 15:58 | 58.28460 | 24.43202 | 34848 ft | 371 kts | 10° |
| 2026-04-22 15:59 | 58.33536 | 24.44982 | 34842 ft | 371 kts | 10° |
| 2026-04-22 15:59 | 58.38614 | 24.46758 | 34840 ft | 371 kts | 10° |
| 2026-04-22 16:00 | 58.43682 | 24.48534 | 34865 ft | 370 kts | 10° |
| 2026-04-22 16:00 | 58.48734 | 24.50313 | 34860 ft | 369 kts | 10° |
| 2026-04-22 16:01 | 58.53773 | 24.52104 | 34855 ft | 368 kts | 10° |
| 2026-04-22 16:01 | 58.58802 | 24.53883 | 34844 ft | 368 kts | 10° |
| 2026-04-22 16:02 | 58.63830 | 24.55668 | 34791 ft | 367 kts | 10° |
| 2026-04-22 16:02 | 58.68864 | 24.57468 | 34803 ft | 368 kts | 9° |
| 2026-04-22 16:03 | 58.73908 | 24.59275 | 34799 ft | 369 kts | 9° |
| 2026-04-22 16:03 | 58.78927 | 24.61078 | 34790 ft | 370 kts | 9° |
| 2026-04-22 16:04 | 58.83987 | 24.62895 | 34795 ft | 370 kts | 9° |
| 2026-04-22 16:04 | 58.89048 | 24.64714 | 34784 ft | 370 kts | 9° |
| 2026-04-22 16:05 | 58.94113 | 24.66538 | 34786 ft | 370 kts | 9° |
| 2026-04-22 16:05 | 58.99176 | 24.68377 | 34829 ft | 370 kts | 9° |
| 2026-04-22 16:06 | 59.04222 | 24.70217 | 34822 ft | 368 kts | 9° |
| 2026-04-22 16:06 | 59.09245 | 24.72056 | 34814 ft | 367 kts | 9° |
| 2026-04-22 16:07 | 59.14257 | 24.73895 | 34805 ft | 366 kts | 9° |
| 2026-04-22 16:07 | 59.19265 | 24.75732 | 34774 ft | 366 kts | 9° |
| 2026-04-22 16:08 | 59.21770 | 24.76651 | 34404 ft | 366 kts | 9° |
| 2026-04-22 16:08 | 59.24274 | 24.77573 | 33648 ft | 367 kts | 9° |
| 2026-04-22 16:08 | 59.26785 | 24.78498 | 32859 ft | 367 kts | 9° |
| 2026-04-22 16:08 | 59.29288 | 24.79423 | 32125 ft | 366 kts | 9° |
| 2026-04-22 16:09 | 59.31788 | 24.80350 | 31322 ft | 366 kts | 8° |
| 2026-04-22 16:09 | 59.34297 | 24.81281 | 30560 ft | 366 kts | 8° |
| 2026-04-22 16:09 | 59.36801 | 24.82211 | 29756 ft | 367 kts | 8° |
| 2026-04-22 16:09 | 59.39317 | 24.83144 | 28819 ft | 368 kts | 8° |
| 2026-04-22 16:10 | 59.41803 | 24.84403 | 27890 ft | 372 kts | 15° |
| 2026-04-22 16:10 | 59.44215 | 24.86332 | 26889 ft | 377 kts | 18° |
| 2026-04-22 16:10 | 59.46620 | 24.88334 | 26170 ft | 374 kts | 17° |
| 2026-04-22 16:10 | 59.49005 | 24.90326 | 25424 ft | 372 kts | 17° |
| 2026-04-22 16:11 | 59.51386 | 24.92310 | 24680 ft | 371 kts | 17° |
| 2026-04-22 16:11 | 59.53758 | 24.94285 | 23981 ft | 370 kts | 16° |
| 2026-04-22 16:11 | 59.56126 | 24.96257 | 23214 ft | 369 kts | 16° |
| 2026-04-22 16:11 | 59.58482 | 24.98220 | 22458 ft | 366 kts | 16° |
| 2026-04-22 16:12 | 59.60814 | 25.00169 | 21802 ft | 362 kts | 16° |
| 2026-04-22 16:12 | 59.63121 | 25.02100 | 21142 ft | 358 kts | 16° |
| 2026-04-22 16:12 | 59.65400 | 25.04010 | 20508 ft | 354 kts | 16° |
| 2026-04-22 16:12 | 59.67657 | 25.05905 | 19909 ft | 350 kts | 16° |
| 2026-04-22 16:13 | 59.69886 | 25.07776 | 19313 ft | 346 kts | 17° |
| 2026-04-22 16:13 | 59.72092 | 25.09631 | 18751 ft | 342 kts | 17° |
| 2026-04-22 16:13 | 59.74271 | 25.11469 | 18202 ft | 339 kts | 17° |
| 2026-04-22 16:13 | 59.76404 | 25.13276 | 18002 ft | 326 kts | 17° |
| 2026-04-22 16:14 | 59.78441 | 25.15011 | 17864 ft | 312 kts | 16° |
| 2026-04-22 16:14 | 59.80392 | 25.16672 | 17724 ft | 299 kts | 16° |
| 2026-04-22 16:14 | 59.82264 | 25.18263 | 17642 ft | 287 kts | 15° |
| 2026-04-22 16:14 | 59.84053 | 25.19790 | 17475 ft | 271 kts | 15° |
| 2026-04-22 16:15 | 59.85747 | 25.21240 | 17022 ft | 261 kts | 14° |
| 2026-04-22 16:15 | 59.87419 | 25.22656 | 16755 ft | 260 kts | 14° |
| 2026-04-22 16:15 | 59.89098 | 25.23932 | 16493 ft | 255 kts | 7° |
| 2026-04-22 16:15 | 59.90825 | 25.24346 | 16235 ft | 248 kts | 354° |
| 2026-04-22 16:16 | 59.92519 | 25.23828 | 15980 ft | 246 kts | 343° |
| 2026-04-22 16:16 | 59.94152 | 25.22781 | 15683 ft | 247 kts | 342° |
| 2026-04-22 16:16 | 59.95769 | 25.21752 | 15434 ft | 247 kts | 342° |
| 2026-04-22 16:16 | 59.97430 | 25.20699 | 15177 ft | 247 kts | 342° |
| 2026-04-22 16:17 | 59.99045 | 25.19652 | 14848 ft | 248 kts | 339° |
| 2026-04-22 16:17 | 60.00493 | 25.17747 | 14199 ft | 255 kts | 317° |
| 2026-04-22 16:17 | 60.01627 | 25.15008 | 13561 ft | 256 kts | 314° |
| 2026-04-22 16:17 | 60.02742 | 25.12218 | 12832 ft | 257 kts | 314° |
| 2026-04-22 16:18 | 60.03851 | 25.09424 | 12115 ft | 257 kts | 314° |
| 2026-04-22 16:18 | 60.04958 | 25.06626 | 11409 ft | 257 kts | 314° |
| 2026-04-22 16:18 | 60.06057 | 25.03848 | 10971 ft | 248 kts | 314° |
| 2026-04-22 16:18 | 60.07081 | 25.01241 | 10838 ft | 229 kts | 315° |
| 2026-04-22 16:19 | 60.08031 | 24.98819 | 10663 ft | 214 kts | 315° |
| 2026-04-22 16:19 | 60.08936 | 24.96521 | 10319 ft | 208 kts | 315° |
| 2026-04-22 16:19 | 60.09837 | 24.94256 | 9882 ft | 208 kts | 315° |
| 2026-04-22 16:19 | 60.10740 | 24.91990 | 9388 ft | 209 kts | 315° |
| 2026-04-22 16:20 | 60.11692 | 24.89612 | 8355 ft | 229 kts | 314° |
| 2026-04-22 16:20 | 60.12688 | 24.87108 | 7892 ft | 225 kts | 314° |
| 2026-04-22 16:20 | 60.13621 | 24.84724 | 7640 ft | 213 kts | 314° |
| 2026-04-22 16:20 | 60.14545 | 24.82376 | 7074 ft | 216 kts | 314° |
| 2026-04-22 16:21 | 60.15484 | 24.79986 | 6489 ft | 220 kts | 313° |
| 2026-04-22 16:21 | 60.16433 | 24.77564 | 5876 ft | 223 kts | 313° |
| 2026-04-22 16:21 | 60.17390 | 24.75116 | 5269 ft | 222 kts | 312° |
| 2026-04-22 16:21 | 60.18342 | 24.72682 | 4641 ft | 220 kts | 313° |
| 2026-04-22 16:22 | 60.20659 | 24.68847 | 3148 ft | 218 kts | 355° |
| 2026-04-22 16:22 | 60.22048 | 24.69718 | 2889 ft | 214 kts | 35° |
| 2026-04-22 16:22 | 60.22969 | 24.72048 | 2597 ft | 209 kts | 44° |
| 2026-04-22 16:23 | 60.24803 | 24.76198 | 2061 ft | 191 kts | 38° |
| 2026-04-22 16:23 | 60.25674 | 24.78102 | 1827 ft | 176 kts | 38° |
| 2026-04-22 16:23 | 60.26465 | 24.79833 | 1593 ft | 162 kts | 37° |
| 2026-04-22 16:24 | 60.27193 | 24.81424 | 1391 ft | 146 kts | 38° |
| 2026-04-22 16:24 | 60.28492 | 24.84252 | 993 ft | 136 kts | 38° |
| 2026-04-22 16:24 | 60.29140 | 24.85667 | 799 ft | 138 kts | 40° |
| 2026-04-22 16:25 | 60.29798 | 24.87099 | 617 ft | 143 kts | 37° |
| 2026-04-22 16:25 | 60.31160 | 24.90095 | 240 ft | 145 kts | 41° |
| 2026-04-22 16:25 | 60.31805 | 24.91563 | 152 ft | 127 kts | 31° |
| 2026-04-22 16:26 | 60.32291 | 24.92580 | 169 ft | 76 kts | 49° |
| 2026-04-22 16:26 | 60.32533 | 24.93114 | 177 ft | 34 kts | 47° |
| 2026-04-22 16:26 | 60.32682 | 24.93438 | 180 ft | 30 kts | 47° |
| 2026-04-22 16:26 | 60.32832 | 24.93767 | 181 ft | 32 kts | 46° |
| 2026-04-22 16:27 | 60.32977 | 24.94088 | 192 ft | 27 kts | 47° |
| 2026-04-22 16:27 | 60.33051 | 24.94321 | 191 ft | 15 kts | 85° |
| 2026-04-22 16:27 | 60.33048 | 24.94501 | 186 ft | 10 kts | 93° |
| 2026-04-22 16:27 | 60.33046 | 24.94564 | 184 ft | 2 kts | 93° |
| 2026-04-22 16:28 | 60.33045 | 24.94621 | 183 ft | 5 kts | 93° |
| 2026-04-22 16:28 | 60.33044 | 24.94708 | 181 ft | 10 kts | 89° |
| 2026-04-22 16:28 | 60.33064 | 24.94856 | 179 ft | 11 kts | 51° |
| 2026-04-22 16:28 | 60.33106 | 24.94981 | 178 ft | 12 kts | 76° |
| 2026-04-22 16:29 | 60.33119 | 24.95173 | 177 ft | 14 kts | 69° |
| 2026-04-22 16:29 | 60.33174 | 24.95316 | 179 ft | 12 kts | 48° |
| 2026-04-22 16:29 | 60.33208 | 24.95467 | 182 ft | 12 kts | 92° |
| 2026-04-22 16:29 | 60.33147 | 24.95632 | 180 ft | 17 kts | 139° |
| 2026-04-22 16:30 | 60.33089 | 24.95735 | 180 ft | 16 kts | 138° |
| 2026-04-22 16:30 | 60.32968 | 24.95891 | 178 ft | 21 kts | 150° |
| 2026-04-22 16:30 | 60.32837 | 24.96045 | 174 ft | 22 kts | 150° |
| 2026-04-22 16:30 | 60.32709 | 24.96194 | 172 ft | 21 kts | 150° |
| 2026-04-22 16:31 | 60.32586 | 24.96338 | 173 ft | 19 kts | 149° |
| 2026-04-22 16:31 | 60.32478 | 24.96463 | 174 ft | 17 kts | 150° |
| 2026-04-22 16:31 | 60.32382 | 24.96574 | 174 ft | 15 kts | 150° |
| 2026-04-22 16:31 | 60.32277 | 24.96699 | 167 ft | 19 kts | 150° |
| 2026-04-22 16:32 | 60.32166 | 24.96828 | 166 ft | 17 kts | 150° |
| 2026-04-22 16:32 | 60.32069 | 24.96941 | 166 ft | 15 kts | 149° |
| 2026-04-22 16:32 | 60.32033 | 24.96975 | 166 ft | 3 kts | 173° |
| 2026-04-22 16:32 | 60.32018 | 24.96960 | 166 ft | 2 kts | 212° |
| 2026-04-22 16:33 | 60.32003 | 24.96938 | 166 ft | 3 kts | 217° |
| 2026-04-22 16:33 | 60.31988 | 24.96914 | 166 ft | 2 kts | 221° |
| 2026-04-22 16:33 | 60.31979 | 24.96901 | 166 ft | 1 kts | 217° |
| 2026-04-22 16:33 | 60.31975 | 24.96895 | 166 ft | 1 kts | 217° |
| 2026-04-22 16:34 | 60.31975 | 24.96894 | 166 ft | 0 kts | 217° |